Time;durP1;ratioP1;P1;durP2;ratioP2;P2;SDS_P1;SDS_P2;PMS_P1;PMS_P2;Temp;Humidity;BMP_temperature;BMP_pressure;BME280_temperature;BME280_humidity;BME280_pressure;Samples;Min_cycle;Max_cycle;Signal;HPM_P1;HPM_P2
2023/01/31 00:00:45;;;;;;;2.73;0.73;;;;;;;-0.59;100.00;98606.03;5069653;28;20583;-65
2023/01/31 00:03:12;;;;;;;3.57;2.27;;;;;;;-0.60;100.00;98604.41;5069540;28;20199;-59
2023/01/31 00:05:40;;;;;;;3.03;1.67;;;;;;;-0.62;100.00;98603.63;5069510;28;20695;-60
2023/01/31 00:08:07;;;;;;;5.63;1.67;;;;;;;-0.59;100.00;98611.06;5069604;28;20576;-60
2023/01/31 00:10:34;;;;;;;0.83;0.63;;;;;;;-0.60;100.00;98609.44;5069251;28;20238;-64
2023/01/31 00:13:01;;;;;;;1.93;1.70;;;;;;;-0.50;100.00;98615.75;5069132;28;20202;-60
2023/01/31 00:15:27;;;;;;;0.70;0.70;;;;;;;-0.50;100.00;98619.09;5070867;28;20230;-65
2023/01/31 00:17:55;;;;;;;0.87;0.87;;;;;;;-0.49;100.00;98617.41;5072840;28;20218;-64
2023/01/31 00:20:21;;;;;;;2.33;1.27;;;;;;;-0.46;100.00;98627.34;5072881;28;20219;-61
2023/01/31 00:22:50;;;;;;;2.00;1.70;;;;;;;-0.50;100.00;98623.28;5072813;28;20210;-60
2023/01/31 00:25:17;;;;;;;1.33;1.23;;;;;;;-0.52;100.00;98632.59;5072809;28;20234;-65
2023/01/31 00:27:44;;;;;;;2.10;0.93;;;;;;;-0.47;100.00;98621.53;5073199;28;20278;-60
2023/01/31 00:30:11;;;;;;;0.60;0.57;;;;;;;-0.50;100.00;98620.78;5072977;28;20226;-60
2023/01/31 00:32:38;;;;;;;3.40;1.50;;;;;;;-0.50;100.00;98615.75;5072688;28;20213;-60
2023/01/31 00:35:06;;;;;;;1.23;1.23;;;;;;;-0.47;100.00;98625.69;5072304;28;20238;-65
2023/01/31 00:37:33;;;;;;;5.20;1.47;;;;;;;-0.43;100.00;98631.47;5072658;28;20198;-65
2023/01/31 00:40:01;;;;;;;1.30;0.83;;;;;;;-0.48;100.00;98624.88;5072433;28;20218;-60
2023/01/31 00:42:28;;;;;;;2.33;1.60;;;;;;;-0.47;100.00;98619.00;5072560;28;20206;-60
2023/01/31 00:44:55;;;;;;;1.00;0.53;;;;;;;-0.46;100.00;98620.63;5072711;28;20223;-60
2023/01/31 00:47:21;;;;;;;0.70;0.70;;;;;;;-0.45;100.00;98634.00;5072385;28;20206;-59
2023/01/31 00:49:48;;;;;;;2.73;1.23;;;;;;;-0.44;100.00;98630.59;5072353;28;20222;-64
2023/01/31 00:52:15;;;;;;;1.83;1.17;;;;;;;-0.46;100.00;98627.34;5072709;28;20206;-65
2023/01/31 00:54:42;;;;;;;2.63;1.67;;;;;;;-0.47;100.00;98626.53;5072355;28;20596;-65
2023/01/31 00:57:10;;;;;;;1.10;1.03;;;;;;;-0.40;100.00;98626.31;5072376;28;20594;-65
2023/01/31 00:59:37;;;;;;;2.30;1.23;;;;;;;-0.39;100.00;98631.28;5072275;28;20226;-65
2023/01/31 01:02:04;;;;;;;1.37;1.27;;;;;;;-0.38;100.00;98630.41;5072170;28;20599;-64
2023/01/31 01:04:31;;;;;;;1.87;1.77;;;;;;;-0.37;100.00;98632.06;5072309;28;20633;-64
2023/01/31 01:06:57;;;;;;;0.77;0.77;;;;;;;-0.33;100.00;98622.72;5072096;28;20199;-65
2023/01/31 01:09:24;;;;;;;1.63;0.70;;;;;;;-0.34;100.00;98621.09;5072150;28;20447;-64
2023/01/31 01:11:51;;;;;;;1.13;0.73;;;;;;;-0.32;100.00;98625.19;5071944;28;20208;-60
2023/01/31 01:14:20;;;;;;;0.33;0.33;;;;;;;-0.31;100.00;98615.94;5071965;28;20234;-60
2023/01/31 01:16:47;;;;;;;1.23;1.20;;;;;;;-0.29;100.00;98622.56;5072177;28;20464;-65
2023/01/31 01:19:17;;;;;;;0.93;0.93;;;;;;;-0.20;100.00;98620.56;5072031;28;20222;-60
2023/01/31 01:21:44;;;;;;;1.07;0.83;;;;;;;-0.32;100.00;98620.16;5071951;28;20203;-64
2023/01/31 01:24:15;;;;;;;1.50;1.03;;;;;;;-0.25;100.00;98621.56;5071942;28;20233;-59
2023/01/31 01:26:42;;;;;;;1.23;0.50;;;;;;;-0.28;100.00;98614.13;5071185;28;20206;-60
2023/01/31 01:29:09;;;;;;;1.33;1.23;;;;;;;-0.22;100.00;98609.78;5071779;28;20718;-65
2023/01/31 01:31:39;;;;;;;1.20;1.10;;;;;;;-0.25;100.00;98606.50;5071550;28;20202;-64
2023/01/31 01:34:08;;;;;;;0.87;0.30;;;;;;;-0.26;100.00;98604.88;5071605;28;20331;-65
2023/01/31 01:36:36;;;;;;;1.20;1.00;;;;;;;-0.19;100.00;98602.13;5071752;28;20210;-60
2023/01/31 01:39:04;;;;;;;0.50;0.50;;;;;;;-0.26;100.00;98604.88;5071480;28;20233;-65
2023/01/31 01:41:33;;;;;;;2.10;1.40;;;;;;;-0.19;100.00;98604.63;5071689;28;20207;-60
2023/01/31 01:44:01;;;;;;;1.37;0.97;;;;;;;-0.26;100.00;98609.88;5071343;28;20222;-63
2023/01/31 01:46:31;;;;;;;0.87;0.87;;;;;;;-0.26;100.00;98604.88;5071265;28;20625;-60
2023/01/31 01:49:03;;;;;;;4.27;0.80;;;;;;;-0.26;100.00;98597.31;5071113;28;20222;-60
2023/01/31 01:51:32;;;;;;;0.37;0.37;;;;;;;-0.26;100.00;98594.81;5071378;28;20210;-65
2023/01/31 01:54:03;;;;;;;0.93;0.93;;;;;;;-0.26;100.00;98592.31;5071072;28;20238;-65
2023/01/31 01:56:36;;;;;;;1.50;1.10;;;;;;;-0.29;100.00;98594.09;5070965;28;20210;-65
2023/01/31 01:59:07;;;;;;;0.70;0.70;;;;;;;-0.16;100.00;98597.00;5071282;28;20268;-60
2023/01/31 02:01:37;;;;;;;1.03;0.67;;;;;;;-0.22;100.00;98600.53;5071003;28;20203;-60
2023/01/31 02:04:10;;;;;;;0.83;0.83;;;;;;;-0.27;100.00;98595.66;5071202;28;20601;-65
2023/01/31 02:06:36;;;;;;;1.40;0.87;;;;;;;-0.29;100.00;98589.91;5070660;28;20195;-65
2023/01/31 02:09:07;;;;;;;1.03;0.93;;;;;;;-0.31;100.00;98589.13;5070847;28;20241;-65
2023/01/31 02:11:35;;;;;;;2.73;2.03;;;;;;;-0.31;100.00;98589.13;5070930;28;20213;-60
2023/01/31 02:14:05;;;;;;;1.40;1.00;;;;;;;-0.35;100.00;98595.16;5070720;28;20627;-64
2023/01/31 02:16:32;;;;;;;0.50;0.50;;;;;;;-0.33;100.00;98598.41;5070516;28;20207;-60
2023/01/31 02:18:59;;;;;;;0.43;0.43;;;;;;;-0.37;100.00;98589.34;5070839;28;20272;-65
2023/01/31 02:22:20;;;;;;;1.53;1.43;;;;;;;-0.36;100.00;98598.53;5070538;28;20202;-65
2023/01/31 02:25:28;;;;;;;0.50;0.50;;;;;;;-0.38;100.00;98595.22;5023024;28;20593;-60
2023/01/31 02:28:26;;;;;;;0.97;0.80;;;;;;;-0.40;100.00;98597.00;5070352;28;20214;-60
2023/01/31 02:31:30;;;;;;;0.80;0.80;;;;;;;-0.43;100.00;98607.16;5070333;28;20198;-65
2023/01/31 02:34:08;;;;;;;1.47;1.23;;;;;;;-0.42;100.00;98608.78;5070219;28;20608;-65
2023/01/31 02:36:47;;;;;;;1.87;1.67;;;;;;;-0.38;100.00;98600.25;5070626;28;20598;-60
2023/01/31 02:39:24;;;;;;;1.97;1.67;;;;;;;-0.38;100.00;98625.38;5070373;28;20210;-65
2023/01/31 02:41:56;;;;;;;2.73;1.20;;;;;;;-0.35;100.00;98624.44;5070335;28;20195;-65
2023/01/31 02:47:26;;;;;;;0.37;0.37;;;;;;;-0.41;100.00;98628.00;5070283;28;20209;-65
2023/01/31 02:50:00;;;;;;;1.13;0.93;;;;;;;-0.41;100.00;98620.47;5070020;28;20736;-65
2023/01/31 02:52:35;;;;;;;2.07;1.43;;;;;;;-0.42;100.00;98628.88;5070010;28;20217;-65
2023/01/31 02:57:58;;;;;;;2.37;1.13;;;;;;;-0.44;100.00;98638.16;5069887;28;20217;-65
2023/01/31 03:00:26;;;;;;;1.23;1.23;;;;;;;-0.40;100.00;98632.16;5069878;28;20226;-65
2023/01/31 03:02:53;;;;;;;0.80;0.80;;;;;;;-0.44;100.00;98643.16;5069762;28;20203;-60
2023/01/31 03:05:21;;;;;;;0.77;0.77;;;;;;;-0.48;100.00;98639.13;5069901;28;20728;-60
2023/01/31 03:07:52;;;;;;;1.37;1.27;;;;;;;-0.46;100.00;98642.41;5069791;28;20202;-65
2023/01/31 03:10:33;;;;;;;1.23;0.97;;;;;;;-0.44;100.00;98640.66;5069834;28;20232;-60
2023/01/31 03:13:14;;;;;;;1.87;1.70;;;;;;;-0.47;100.00;98640.75;5069829;28;20609;-60
2023/01/31 03:18:44;;;;;;;1.20;1.10;;;;;;;-0.47;100.00;98658.34;5069679;28;20217;-65
2023/01/31 03:21:18;;;;;;;0.77;0.77;;;;;;;-0.48;100.00;98661.75;5070108;28;20202;-60
2023/01/31 03:23:50;;;;;;;3.77;1.67;;;;;;;-0.46;100.00;98662.50;5069703;28;20698;-65
2023/01/31 03:26:19;;;;;;;0.77;0.77;;;;;;;-0.45;100.00;98654.09;5069734;28;20203;-60
2023/01/31 03:28:53;;;;;;;0.83;0.83;;;;;;;-0.42;100.00;98664.03;5069544;28;20223;-60
2023/01/31 03:31:23;;;;;;;1.57;1.13;;;;;;;-0.37;100.00;98667.22;5070049;28;20203;-60
2023/01/31 03:33:54;;;;;;;0.50;0.50;;;;;;;-0.43;100.00;98664.91;5069326;28;20222;-65
2023/01/31 03:36:29;;;;;;;0.87;0.87;;;;;;;-0.41;100.00;98670.69;5069785;28;20237;-60
2023/01/31 03:39:09;;;;;;;1.30;0.83;;;;;;;-0.47;100.00;98666.72;5069317;28;20769;-60
2023/01/31 03:41:46;;;;;;;1.47;1.37;;;;;;;-0.40;100.00;98672.34;5069861;28;20263;-60
2023/01/31 03:44:20;;;;;;;1.57;1.17;;;;;;;-0.34;100.00;98677.16;5069471;28;20217;-64
2023/01/31 03:46:50;;;;;;;0.80;0.80;;;;;;;-0.37;100.00;98677.25;5069564;28;20252;-60
2023/01/31 03:49:20;;;;;;;6.53;0.83;;;;;;;-0.35;100.00;98680.53;5069521;28;20222;-65
2023/01/31 03:51:52;;;;;;;0.73;0.73;;;;;;;-0.30;100.00;98678.69;5073950;28;20245;-60
2023/01/31 03:54:24;;;;;;;0.87;0.87;;;;;;;-0.34;100.00;98692.22;5073240;28;20225;-60
2023/01/31 03:56:57;;;;;;;3.47;1.07;;;;;;;-0.30;100.00;98687.91;5073526;28;20207;-64
2023/01/31 03:59:29;;;;;;;1.47;1.37;;;;;;;-0.30;100.00;98683.69;5073623;28;20741;-65
2023/01/31 04:01:59;;;;;;;0.97;0.90;;;;;;;-0.24;100.00;98686.00;5073389;28;20202;-60
2023/01/31 04:04:31;;;;;;;1.53;1.23;;;;;;;-0.24;100.00;98688.50;5073527;28;20241;-65
2023/01/31 04:07:00;;;;;;;2.37;0.90;;;;;;;-0.21;100.00;98686.78;5073067;28;20268;-65
2023/01/31 04:09:27;;;;;;;2.07;1.90;;;;;;;-0.22;100.00;98695.19;5073007;28;20215;-60
2023/01/31 04:11:54;;;;;;;2.47;1.83;;;;;;;-0.21;100.00;98694.31;5073099;28;20202;-60
2023/01/31 04:14:21;;;;;;;0.93;0.93;;;;;;;-0.18;100.00;98699.22;5072894;28;20218;-60
2023/01/31 04:16:48;;;;;;;2.67;1.73;;;;;;;-0.16;100.00;98700.81;5072983;28;20198;-65
2023/01/31 04:19:14;;;;;;;1.23;1.17;;;;;;;-0.21;100.00;98696.81;5072906;28;20233;-65
2023/01/31 04:21:41;;;;;;;3.40;1.90;;;;;;;-0.21;100.00;98687.59;5072901;28;20575;-64
2023/01/31 04:24:10;;;;;;;1.23;1.13;;;;;;;-0.25;100.00;98676.81;5072923;28;20463;-60
2023/01/31 04:26:37;;;;;;;2.30;1.50;;;;;;;-0.26;100.00;98687.75;5072923;28;20217;-60
2023/01/31 04:29:04;;;;;;;1.40;1.30;;;;;;;-0.32;100.00;98687.13;5072798;28;20215;-65
2023/01/31 04:31:31;;;;;;;1.47;1.37;;;;;;;-0.32;100.00;98693.00;5072746;28;20202;-65
2023/01/31 04:33:58;;;;;;;1.60;1.27;;;;;;;-0.34;100.00;98686.38;5072233;28;20226;-65
2023/01/31 04:36:25;;;;;;;1.10;1.03;;;;;;;-0.38;100.00;98685.66;5072607;28;20288;-60
2023/01/31 04:38:52;;;;;;;0.43;0.43;;;;;;;-0.38;100.00;98680.63;5072223;28;20228;-59
2023/01/31 04:41:20;;;;;;;1.27;1.07;;;;;;;-0.39;100.00;98681.50;5072578;28;20206;-65
2023/01/31 04:43:47;;;;;;;2.80;1.50;;;;;;;-0.45;100.00;98679.22;5072385;28;20249;-60
2023/01/31 04:46:14;;;;;;;4.10;1.30;;;;;;;-0.50;100.00;98696.13;5072526;28;20221;-59
2023/01/31 04:48:41;;;;;;;6.80;3.17;;;;;;;-0.53;100.00;98688.69;5072536;28;20215;-60
2023/01/31 04:51:08;;;;;;;4.67;1.93;;;;;;;-0.54;100.00;98694.59;5072583;28;20206;-59
2023/01/31 04:53:35;;;;;;;7.27;1.83;;;;;;;-0.53;100.00;98697.03;5072591;28;20205;-60
2023/01/31 04:56:01;;;;;;;4.60;1.57;;;;;;;-0.60;100.00;98692.28;5072318;28;20578;-59
2023/01/31 04:58:30;;;;;;;3.10;2.20;;;;;;;-0.61;100.00;98690.63;5072190;28;20198;-60
2023/01/31 05:00:57;;;;;;;1.73;0.87;;;;;;;-0.60;100.00;98689.78;5071444;28;20206;-60
2023/01/31 05:03:24;;;;;;;0.70;0.70;;;;;;;-0.60;100.00;98703.16;5071750;28;20202;-65
2023/01/31 05:05:51;;;;;;;3.50;2.77;;;;;;;-0.63;100.00;98693.22;5072040;28;20207;-64
2023/01/31 05:08:18;;;;;;;2.57;1.87;;;;;;;-0.62;100.00;98689.00;5071770;28;20224;-60
2023/01/31 05:10:45;;;;;;;1.77;1.50;;;;;;;-0.66;100.00;98695.00;5072159;28;20207;-65
2023/01/31 05:13:13;;;;;;;2.60;1.90;;;;;;;-0.63;100.00;98699.91;5072033;28;20207;-65
2023/01/31 05:15:41;;;;;;;2.73;2.10;;;;;;;-0.65;100.00;98706.69;5071769;28;20288;-65
2023/01/31 05:18:08;;;;;;;1.50;1.40;;;;;;;-0.69;100.00;98705.97;5071883;28;20213;-60
2023/01/31 05:20:39;;;;;;;1.20;0.93;;;;;;;-0.72;100.00;98703.56;5071725;28;20239;-60
2023/01/31 05:23:06;;;;;;;2.47;1.70;;;;;;;-0.73;100.00;98705.25;5071687;28;20206;-60
2023/01/31 05:25:34;;;;;;;1.57;1.47;;;;;;;-0.73;100.00;98701.91;5071600;28;20215;-65
2023/01/31 05:28:01;;;;;;;2.03;1.93;;;;;;;-0.81;100.00;98702.16;5071494;28;20198;-65
2023/01/31 05:30:28;;;;;;;1.17;1.07;;;;;;;-0.74;100.00;98698.56;5071347;28;20234;-60
2023/01/31 05:32:56;;;;;;;3.80;1.10;;;;;;;-0.73;100.00;98707.75;5071457;28;20194;-65
2023/01/31 05:35:23;;;;;;;5.73;3.40;;;;;;;-0.72;100.00;98711.91;5071800;28;20230;-64
2023/01/31 05:37:52;;;;;;;2.37;1.80;;;;;;;-0.74;100.00;98718.66;5071203;28;20201;-65
2023/01/31 05:40:19;;;;;;;2.17;1.60;;;;;;;-0.64;100.00;98723.38;5071272;28;20215;-60
2023/01/31 05:42:53;;;;;;;2.03;1.87;;;;;;;-0.56;100.00;98726.44;5071415;28;20225;-60
2023/01/31 05:45:20;;;;;;;1.80;1.40;;;;;;;-0.58;100.00;98736.56;5071259;28;20223;-60
2023/01/31 05:47:48;;;;;;;2.47;2.27;;;;;;;-0.50;100.00;98741.31;5070983;28;20594;-60
2023/01/31 05:50:17;;;;;;;3.23;1.60;;;;;;;-0.40;100.00;98746.88;5071281;28;20219;-64
2023/01/31 05:52:43;;;;;;;0.80;0.80;;;;;;;-0.34;100.00;98742.47;5071029;28;20194;-65
2023/01/31 05:55:10;;;;;;;3.47;1.47;;;;;;;-0.35;100.00;98748.38;5071187;28;20231;-60
2023/01/31 05:57:37;;;;;;;1.90;1.60;;;;;;;-0.32;100.00;98749.94;5071135;28;20202;-59
2023/01/31 06:00:05;;;;;;;2.20;2.00;;;;;;;-0.33;100.00;98744.09;5071032;28;20218;-64
2023/01/31 06:02:32;;;;;;;4.00;1.07;;;;;;;-0.30;100.00;98746.50;5071221;28;20294;-65
2023/01/31 06:04:58;;;;;;;1.47;1.37;;;;;;;-0.30;100.00;98754.03;5070712;28;20221;-60
2023/01/31 06:07:27;;;;;;;2.93;2.13;;;;;;;-0.29;100.00;98760.72;5070852;28;20198;-60
2023/01/31 06:09:54;;;;;;;1.23;1.13;;;;;;;-0.21;100.00;98764.66;5070766;28;20222;-64
2023/01/31 06:12:20;;;;;;;2.47;1.50;;;;;;;-0.19;100.00;98758.69;5070447;28;20202;-65
2023/01/31 06:14:48;;;;;;;0.60;0.60;;;;;;;-0.16;100.00;98765.31;5070469;28;20222;-60
2023/01/31 06:17:15;;;;;;;3.17;2.03;;;;;;;-0.07;100.00;98775.88;5070794;28;20234;-60
2023/01/31 06:19:42;;;;;;;0.87;0.87;;;;;;;-0.04;100.00;98772.44;5070437;28;20214;-60
2023/01/31 06:22:10;;;;;;;0.80;0.67;;;;;;;0.00;100.00;98776.50;5070879;28;20233;-60
2023/01/31 06:24:38;;;;;;;2.47;2.27;;;;;;;0.02;100.00;98773.91;5070677;28;20218;-65
2023/01/31 06:27:05;;;;;;;1.93;1.60;;;;;;;-0.01;100.00;98779.88;5070507;28;20210;-60
2023/01/31 06:29:32;;;;;;;3.13;2.83;;;;;;;0.06;100.00;98780.47;5070625;28;20215;-60
2023/01/31 06:31:59;;;;;;;2.23;1.90;;;;;;;0.07;100.00;98780.44;5070596;28;20589;-60
2023/01/31 06:34:26;;;;;;;1.43;1.33;;;;;;;0.22;100.00;98781.59;5070246;28;20582;-60
2023/01/31 06:36:53;;;;;;;1.73;1.33;;;;;;;0.17;100.00;98778.41;5070226;28;20234;-60
2023/01/31 06:39:20;;;;;;;1.50;1.40;;;;;;;0.20;100.00;98784.19;5070187;28;20223;-59
2023/01/31 06:41:48;;;;;;;1.20;1.00;;;;;;;0.25;100.00;98790.72;5070418;28;20573;-60
2023/01/31 06:44:15;;;;;;;2.87;1.77;;;;;;;0.14;100.00;98789.38;5070290;28;20221;-59
2023/01/31 06:46:42;;;;;;;1.80;1.60;;;;;;;0.17;100.00;98784.25;5070039;28;20289;-60
2023/01/31 06:49:08;;;;;;;1.10;1.00;;;;;;;0.30;100.00;98784.66;5070062;28;20736;-59
2023/01/31 06:51:35;;;;;;;1.83;1.63;;;;;;;0.36;100.00;98784.44;5070245;28;20206;-65
2023/01/31 06:54:04;;;;;;;3.07;2.00;;;;;;;0.43;100.00;98788.34;5070032;28;20219;-59
2023/01/31 06:56:30;;;;;;;2.00;1.17;;;;;;;0.49;100.00;98787.31;5070306;28;20602;-65
2023/01/31 06:58:59;;;;;;;1.33;1.23;;;;;;;0.54;100.00;98782.94;5069709;28;20226;-60
2023/01/31 07:01:26;;;;;;;1.10;1.10;;;;;;;0.65;100.00;98788.41;5070157;28;20203;-65
2023/01/31 07:03:53;;;;;;;0.93;0.93;;;;;;;0.72;100.00;98795.75;5069784;28;20255;-65
2023/01/31 07:06:21;;;;;;;4.27;1.97;;;;;;;0.99;100.00;98794.72;5069961;28;20213;-59
2023/01/31 07:08:48;;;;;;;2.30;1.63;;;;;;;1.05;100.00;98809.59;5069503;28;20226;-60
2023/01/31 07:11:15;;;;;;;1.37;1.27;;;;;;;1.23;100.00;98797.16;5069986;28;20203;-59
2023/01/31 07:13:42;;;;;;;2.67;1.57;;;;;;;1.34;100.00;98805.13;5069803;28;20250;-60
2023/01/31 07:16:10;;;;;;;0.93;0.93;;;;;;;1.42;100.00;98812.38;5070114;28;20246;-64
2023/01/31 07:18:37;;;;;;;3.37;2.17;;;;;;;1.67;100.00;98819.78;5069624;28;20305;-59
2023/01/31 07:21:05;;;;;;;2.37;1.93;;;;;;;1.73;100.00;98817.00;5069947;28;20195;-60
2023/01/31 07:23:32;;;;;;;1.80;1.60;;;;;;;2.09;100.00;98814.66;5069615;28;20245;-64
2023/01/31 07:26:01;;;;;;;1.63;1.53;;;;;;;2.10;100.00;98820.56;5068761;28;20203;-60
2023/01/31 07:28:27;;;;;;;3.13;2.33;;;;;;;2.39;100.00;98837.78;5069674;28;20202;-64
2023/01/31 07:30:54;;;;;;;3.10;1.97;;;;;;;2.19;100.00;98822.69;5069768;28;20545;-60
2023/01/31 07:33:23;;;;;;;4.13;1.33;;;;;;;2.41;100.00;98828.44;5069451;28;20198;-60
2023/01/31 07:35:50;;;;;;;1.27;1.23;;;;;;;2.52;100.00;98832.19;5069667;28;20226;-60
2023/01/31 07:38:16;;;;;;;1.60;1.50;;;;;;;2.35;100.00;98830.41;5069600;28;20206;-64
2023/01/31 07:40:43;;;;;;;1.23;1.13;;;;;;;2.57;100.00;98830.31;5069846;28;20237;-64
2023/01/31 07:43:10;;;;;;;3.20;2.90;;;;;;;2.79;100.00;98841.06;5069541;28;20214;-60
2023/01/31 07:45:41;;;;;;;3.77;2.63;;;;;;;2.81;100.00;98829.22;5069332;28;20222;-64
2023/01/31 07:48:08;;;;;;;2.60;1.67;;;;;;;2.80;100.00;98832.63;5069410;28;20210;-64
2023/01/31 07:50:36;;;;;;;2.83;1.50;;;;;;;3.05;100.00;98832.31;5069393;28;20226;-60
2023/01/31 07:53:03;;;;;;;3.73;1.57;;;;;;;3.04;100.00;98834.94;5069443;28;20694;-63
2023/01/31 07:55:30;;;;;;;2.30;2.00;;;;;;;3.07;100.00;98825.50;5068936;28;20769;-60
2023/01/31 07:57:57;;;;;;;3.23;2.33;;;;;;;3.17;100.00;98833.47;5069177;28;20198;-60
2023/01/31 08:03:32;;;;;;;1.10;0.97;;;;;;;3.28;100.00;98817.81;5069709;28;20574;-61
2023/01/31 08:06:02;;;;;;;2.23;1.63;;;;;;;3.46;100.00;98831.31;5069361;28;20209;-62
2023/01/31 08:08:29;;;;;;;2.83;1.90;;;;;;;3.46;100.00;98841.41;5068940;28;20205;-60
2023/01/31 08:10:56;;;;;;;3.30;1.97;;;;;;;3.51;100.00;98831.91;5069446;28;20229;-60
2023/01/31 08:13:25;;;;;;;1.77;1.40;;;;;;;3.81;100.00;98837.19;5069131;28;20199;-62
2023/01/31 08:15:52;;;;;;;3.73;1.97;;;;;;;3.93;100.00;98848.44;5069349;28;20253;-62
2023/01/31 08:18:19;;;;;;;4.67;2.60;;;;;;;3.65;100.00;98842.19;5068904;28;20663;-62
2023/01/31 08:20:46;;;;;;;1.80;1.53;;;;;;;3.69;100.00;98843.66;5069251;28;20597;-61
2023/01/31 08:23:14;;;;;;;2.47;1.77;;;;;;;3.86;100.00;98843.66;5069089;28;20209;-62
2023/01/31 08:25:41;;;;;;;1.33;1.23;;;;;;;4.05;100.00;98847.84;5069106;28;20202;-60
2023/01/31 08:28:08;;;;;;;9.20;2.67;;;;;;;4.16;100.00;98853.19;5069110;28;20214;-61
2023/01/31 08:30:39;;;;;;;3.57;1.57;;;;;;;4.25;100.00;98847.66;5068949;28;20222;-62
2023/01/31 08:33:06;;;;;;;1.77;1.33;;;;;;;4.34;100.00;98853.16;5069105;28;20698;-62
2023/01/31 08:35:32;;;;;;;3.17;2.23;;;;;;;4.75;100.00;98851.84;5068892;28;20222;-62
2023/01/31 08:37:59;;;;;;;2.20;1.27;;;;;;;4.30;100.00;98853.31;5072777;28;20237;-62
2023/01/31 08:40:28;;;;;;;1.77;1.27;;;;;;;4.42;100.00;98856.09;5072765;28;20218;-60
2023/01/31 08:42:55;;;;;;;1.33;1.20;;;;;;;4.82;100.00;98859.13;5072608;28;20225;-62
2023/01/31 08:45:22;;;;;;;2.27;1.73;;;;;;;4.50;100.00;98848.94;5072647;28;20218;-61
2023/01/31 08:47:52;;;;;;;0.67;0.67;;;;;;;4.44;100.00;98856.84;5072607;28;20249;-62
2023/01/31 08:50:19;;;;;;;2.83;2.17;;;;;;;4.40;100.00;98853.66;5072372;28;20666;-61
2023/01/31 08:52:46;;;;;;;2.37;1.33;;;;;;;4.63;100.00;98851.69;5072321;28;20210;-62
2023/01/31 08:55:13;;;;;;;1.23;1.17;;;;;;;4.63;100.00;98856.75;5072039;28;20605;-62
2023/01/31 08:57:44;;;;;;;6.27;1.67;;;;;;;5.33;100.00;98862.31;5072265;28;20230;-62
2023/01/31 09:00:12;;;;;;;2.87;0.93;;;;;;;4.97;100.00;98851.56;5072393;28;20726;-60
2023/01/31 09:02:39;;;;;;;2.57;1.80;;;;;;;4.81;100.00;98865.09;5072115;28;20199;-62
2023/01/31 09:05:07;;;;;;;2.67;2.23;;;;;;;5.04;100.00;98868.94;5072136;28;20218;-62
2023/01/31 09:07:34;;;;;;;1.53;1.43;;;;;;;4.94;100.00;98866.88;5071854;28;20198;-62
2023/01/31 09:10:01;;;;;;;1.57;1.47;;;;;;;4.97;100.00;98863.38;5071884;28;20219;-60
2023/01/31 09:12:28;;;;;;;2.20;1.87;;;;;;;4.77;100.00;98864.44;5072362;28;20809;-61
2023/01/31 09:14:56;;;;;;;1.57;1.47;;;;;;;4.76;100.00;98868.66;5071606;28;20222;-61
2023/01/31 09:17:23;;;;;;;1.10;1.10;;;;;;;5.24;100.00;98857.75;5072218;28;20226;-60
2023/01/31 09:19:50;;;;;;;6.10;2.60;;;;;;;4.82;100.00;98866.72;5071618;28;20578;-60
2023/01/31 09:22:17;;;;;;;3.80;1.67;;;;;;;4.79;100.00;98865.16;5072001;28;20356;-60
2023/01/31 09:24:45;;;;;;;0.60;0.60;;;;;;;5.38;100.00;98876.38;5071475;28;20215;-61
2023/01/31 09:27:12;;;;;;;4.27;1.93;;;;;;;5.32;100.00;98868.28;5071823;28;20234;-62
2023/01/31 09:29:39;;;;;;;2.37;1.70;;;;;;;4.60;100.00;98861.97;5071443;28;20226;-60
2023/01/31 09:32:07;;;;;;;1.50;1.40;;;;;;;5.03;100.00;98869.84;5071615;28;20199;-60
2023/01/31 09:34:34;;;;;;;2.30;1.53;;;;;;;5.35;100.00;98868.09;5071555;28;20223;-61
2023/01/31 09:37:01;;;;;;;1.77;1.60;;;;;;;5.61;100.00;98872.59;5071002;28;20245;-60
2023/01/31 09:39:28;;;;;;;1.60;1.50;;;;;;;5.67;100.00;98866.34;5071060;28;20245;-61
2023/01/31 09:41:58;;;;;;;3.27;2.07;;;;;;;4.89;100.00;98868.06;5071586;28;20651;-60
2023/01/31 09:44:29;;;;;;;2.93;2.23;;;;;;;4.76;100.00;98858.53;5071305;28;20702;-61
2023/01/31 09:46:59;;;;;;;2.97;1.80;;;;;;;5.28;100.00;98871.88;5071053;28;20253;-62
2023/01/31 09:49:31;;;;;;;3.73;2.70;;;;;;;5.25;100.00;98877.13;5070812;28;20218;-61
2023/01/31 09:52:00;;;;;;;5.33;1.90;;;;;;;4.61;100.00;98873.72;5071067;28;20203;-61
2023/01/31 09:54:33;;;;;;;1.17;1.07;;;;;;;4.28;100.00;98872.81;5070678;28;20230;-60
2023/01/31 09:57:09;;;;;;;2.43;2.23;;;;;;;4.10;100.00;98873.69;5070662;28;20240;-61
2023/01/31 09:59:45;;;;;;;4.30;1.43;;;;;;;4.37;100.00;98866.47;5070892;28;20225;-61
2023/01/31 10:02:37;;;;;;;0.77;0.77;;;;;;;4.39;100.00;98866.38;5071343;28;20210;-61
2023/01/31 10:05:20;;;;;;;1.63;1.53;;;;;;;4.01;100.00;98877.50;5070866;28;20215;-61
2023/01/31 10:07:57;;;;;;;5.20;1.63;;;;;;;3.71;100.00;98861.28;5070731;28;20218;-60
2023/01/31 10:10:33;;;;;;;1.53;1.33;;;;;;;3.43;100.00;98866.81;5070703;28;20222;-60
2023/01/31 10:13:03;;;;;;;1.33;1.23;;;;;;;3.94;100.00;98852.59;5070666;28;20197;-61
2023/01/31 10:15:37;;;;;;;2.20;1.80;;;;;;;4.13;100.00;98848.28;5070505;28;20219;-61
2023/01/31 10:18:08;;;;;;;1.57;1.43;;;;;;;4.47;100.00;98851.63;5070328;28;20222;-60
2023/01/31 10:20:39;;;;;;;1.10;1.00;;;;;;;5.39;100.00;98856.91;5070407;28;20222;-60
2023/01/31 10:23:14;;;;;;;1.37;1.27;;;;;;;5.12;100.00;98854.97;5070908;28;20203;-61
2023/01/31 10:25:48;;;;;;;3.87;2.23;;;;;;;4.56;100.00;98857.94;5070659;28;20194;-60
2023/01/31 10:28:20;;;;;;;2.03;1.27;;;;;;;4.44;100.00;98849.25;5070756;28;20203;-61
2023/01/31 10:30:56;;;;;;;1.23;1.17;;;;;;;4.83;100.00;98850.63;5070505;28;20205;-61
2023/01/31 10:33:32;;;;;;;2.83;2.53;;;;;;;5.14;100.00;98845.56;5070249;28;20217;-61
2023/01/31 10:36:04;;;;;;;3.97;1.47;;;;;;;5.19;100.00;98856.28;5070138;28;20198;-60
2023/01/31 10:38:38;;;;;;;8.23;2.63;;;;;;;5.22;100.00;98851.03;5070500;28;20356;-61
2023/01/31 10:41:13;;;;;;;5.13;1.30;;;;;;;5.54;100.00;98847.66;5070547;28;20291;-61
2023/01/31 10:43:47;;;;;;;4.17;2.13;;;;;;;4.96;100.00;98849.09;5070291;28;20220;-61
2023/01/31 10:46:15;;;;;;;2.63;1.27;;;;;;;5.21;100.00;98844.34;5070328;28;20214;-61
2023/01/31 10:48:45;;;;;;;2.50;2.30;;;;;;;5.38;100.00;98834.97;5070522;28;20222;-61
2023/01/31 10:51:29;;;;;;;1.50;1.30;;;;;;;5.61;100.00;98841.31;5070284;28;20206;-61
2023/01/31 10:54:11;;;;;;;1.00;0.90;;;;;;;5.76;100.00;98834.56;5070201;28;20214;-60
2023/01/31 10:56:42;;;;;;;1.93;1.70;;;;;;;5.76;100.00;98840.47;5070252;28;20209;-62
2023/01/31 10:59:16;;;;;;;0.90;0.80;;;;;;;5.51;100.00;98830.88;5069903;28;20214;-61
2023/01/31 11:01:42;;;;;;;3.13;1.90;;;;;;;5.38;100.00;98829.91;5070085;28;20230;-60
2023/01/31 11:04:23;;;;;;;1.27;1.17;;;;;;;6.05;100.00;98830.41;5070168;28;20714;-61
2023/01/31 11:06:52;;;;;;;2.23;1.73;;;;;;;6.22;100.00;98831.97;5070122;28;20228;-62
2023/01/31 11:09:20;;;;;;;1.97;1.50;;;;;;;6.25;100.00;98834.31;5069951;28;20219;-61
2023/01/31 11:11:55;;;;;;;1.33;1.23;;;;;;;6.16;100.00;98833.13;5070355;28;20203;-61
2023/01/31 11:14:22;;;;;;;3.10;1.30;;;;;;;5.85;100.00;98834.88;5069836;28;20218;-60
2023/01/31 11:16:50;;;;;;;3.67;2.13;;;;;;;5.82;100.00;98834.25;5069703;28;20236;-60
2023/01/31 11:19:21;;;;;;;5.10;1.70;;;;;;;6.26;100.00;98831.69;5069705;28;20786;-61
2023/01/31 11:21:52;;;;;;;1.43;1.33;;;;;;;6.68;100.00;98831.78;5070061;28;20195;-60
2023/01/31 11:24:22;;;;;;;3.47;1.97;;;;;;;6.75;100.00;98838.13;5069601;28;20728;-61
2023/01/31 11:26:55;;;;;;;4.13;1.43;;;;;;;6.65;100.00;98839.59;5070026;28;20206;-60
2023/01/31 11:29:28;;;;;;;2.60;1.20;;;;;;;6.35;100.00;98837.97;5069620;28;20222;-60
2023/01/31 11:31:55;;;;;;;2.10;1.27;;;;;;;5.68;100.00;98828.22;5069895;28;20216;-60
2023/01/31 11:34:24;;;;;;;1.33;1.07;;;;;;;5.47;100.00;98834.50;5069837;28;20222;-60
2023/01/31 11:36:52;;;;;;;1.73;1.57;;;;;;;5.25;100.00;98839.91;5069397;28;20213;-62
2023/01/31 11:39:31;;;;;;;0.80;0.80;;;;;;;5.19;100.00;98841.06;5069491;28;20333;-60
2023/01/31 11:42:06;;;;;;;1.43;1.10;;;;;;;5.38;100.00;98835.81;5069807;28;20682;-62
2023/01/31 11:44:32;;;;;;;2.67;1.37;;;;;;;6.09;100.00;98840.28;5069863;28;20233;-62
2023/01/31 11:47:04;;;;;;;1.33;1.17;;;;;;;6.46;96.42;98840.69;5069778;28;20606;-62
2023/01/31 11:49:34;;;;;;;5.50;1.47;;;;;;;5.93;100.00;98842.06;5069433;28;20225;-62
2023/01/31 11:52:14;;;;;;;6.03;1.60;;;;;;;5.63;100.00;98842.06;5069501;28;20194;-62